sensor_id;sensor_type;location;lat;lon;timestamp;temperature;humidity
5607;DHT22;2825;53.116;9.392;2022-09-29T00:01:50;6.80;99.90
5607;DHT22;2825;53.116;9.392;2022-09-29T00:04:16;6.80;99.90
5607;DHT22;2825;53.116;9.392;2022-09-29T00:06:42;6.90;99.90
5607;DHT22;2825;53.116;9.392;2022-09-29T00:09:07;6.90;99.90
5607;DHT22;2825;53.116;9.392;2022-09-29T00:11:33;6.90;99.90
5607;DHT22;2825;53.116;9.392;2022-09-29T00:13:59;6.90;99.90
5607;DHT22;2825;53.116;9.392;2022-09-29T00:16:25;6.80;99.90
5607;DHT22;2825;53.116;9.392;2022-09-29T00:18:53;6.80;99.90
5607;DHT22;2825;53.116;9.392;2022-09-29T00:21:19;6.80;99.90
5607;DHT22;2825;53.116;9.392;2022-09-29T00:23:45;6.80;99.90
5607;DHT22;2825;53.116;9.392;2022-09-29T00:26:13;6.80;99.90
5607;DHT22;2825;53.116;9.392;2022-09-29T00:28:44;6.80;99.90
5607;DHT22;2825;53.116;9.392;2022-09-29T00:31:10;6.80;99.90
5607;DHT22;2825;53.116;9.392;2022-09-29T00:33:37;6.70;99.90
5607;DHT22;2825;53.116;9.392;2022-09-29T00:36:09;6.70;99.90
5607;DHT22;2825;53.116;9.392;2022-09-29T00:38:37;6.70;99.90
5607;DHT22;2825;53.116;9.392;2022-09-29T00:41:03;6.70;99.90
5607;DHT22;2825;53.116;9.392;2022-09-29T00:46:43;6.70;99.90
5607;DHT22;2825;53.116;9.392;2022-09-29T00:49:59;6.70;99.90
5607;DHT22;2825;53.116;9.392;2022-09-29T00:52:20;6.60;99.90
5607;DHT22;2825;53.116;9.392;2022-09-29T00:57:27;6.60;99.90
5607;DHT22;2825;53.116;9.392;2022-09-29T01:00:09;6.60;99.90
5607;DHT22;2825;53.116;9.392;2022-09-29T01:02:39;6.50;99.90
5607;DHT22;2825;53.116;9.392;2022-09-29T01:05:10;6.40;99.90
5607;DHT22;2825;53.116;9.392;2022-09-29T01:07:38;6.40;99.90
5607;DHT22;2825;53.116;9.392;2022-09-29T01:10:04;6.40;99.90
5607;DHT22;2825;53.116;9.392;2022-09-29T01:12:31;6.40;99.90
5607;DHT22;2825;53.116;9.392;2022-09-29T01:14:57;6.30;99.90
5607;DHT22;2825;53.116;9.392;2022-09-29T01:17:24;6.30;99.90
5607;DHT22;2825;53.116;9.392;2022-09-29T01:37:22;6.00;99.90
5607;DHT22;2825;53.116;9.392;2022-09-29T01:40:00;6.00;99.90
5607;DHT22;2825;53.116;9.392;2022-09-29T01:42:34;6.00;99.90
5607;DHT22;2825;53.116;9.392;2022-09-29T01:45:13;6.00;99.90
5607;DHT22;2825;53.116;9.392;2022-09-29T01:47:43;5.90;99.90
5607;DHT22;2825;53.116;9.392;2022-09-29T01:50:31;5.90;99.90
5607;DHT22;2825;53.116;9.392;2022-09-29T01:53:12;5.90;99.90
5607;DHT22;2825;53.116;9.392;2022-09-29T01:55:43;5.80;99.90
5607;DHT22;2825;53.116;9.392;2022-09-29T01:58:18;5.90;99.90
5607;DHT22;2825;53.116;9.392;2022-09-29T02:00:49;5.80;99.90
5607;DHT22;2825;53.116;9.392;2022-09-29T02:05:54;5.80;99.90
5607;DHT22;2825;53.116;9.392;2022-09-29T02:11:05;5.70;99.90
5607;DHT22;2825;53.116;9.392;2022-09-29T02:16:18;5.50;99.90
5607;DHT22;2825;53.116;9.392;2022-09-29T02:18:50;5.50;99.90
5607;DHT22;2825;53.116;9.392;2022-09-29T02:21:17;5.50;99.90
5607;DHT22;2825;53.116;9.392;2022-09-29T02:23:43;5.50;99.90
5607;DHT22;2825;53.116;9.392;2022-09-29T02:26:10;5.50;99.90
5607;DHT22;2825;53.116;9.392;2022-09-29T02:28:36;5.40;99.90
5607;DHT22;2825;53.116;9.392;2022-09-29T02:31:03;5.40;99.90
5607;DHT22;2825;53.116;9.392;2022-09-29T02:33:29;5.40;99.90
5607;DHT22;2825;53.116;9.392;2022-09-29T02:38:44;5.30;99.90
5607;DHT22;2825;53.116;9.392;2022-09-29T02:55:34;5.20;99.90
5607;DHT22;2825;53.116;9.392;2022-09-29T02:58:33;5.20;99.90
5607;DHT22;2825;53.116;9.392;2022-09-29T03:01:02;5.10;99.90
5607;DHT22;2825;53.116;9.392;2022-09-29T03:03:28;5.10;99.90
5607;DHT22;2825;53.116;9.392;2022-09-29T03:05:53;5.10;99.90
5607;DHT22;2825;53.116;9.392;2022-09-29T03:08:19;5.00;99.90
5607;DHT22;2825;53.116;9.392;2022-09-29T03:10:45;5.00;99.90
5607;DHT22;2825;53.116;9.392;2022-09-29T03:13:10;5.00;99.90
5607;DHT22;2825;53.116;9.392;2022-09-29T03:15:36;5.00;99.90
5607;DHT22;2825;53.116;9.392;2022-09-29T03:18:02;5.00;99.90
5607;DHT22;2825;53.116;9.392;2022-09-29T03:20:28;4.90;99.90
5607;DHT22;2825;53.116;9.392;2022-09-29T03:22:55;4.90;99.90
5607;DHT22;2825;53.116;9.392;2022-09-29T03:25:22;4.90;99.90
5607;DHT22;2825;53.116;9.392;2022-09-29T03:27:49;4.90;99.90
5607;DHT22;2825;53.116;9.392;2022-09-29T03:30:16;4.90;99.90
5607;DHT22;2825;53.116;9.392;2022-09-29T03:32:43;4.90;99.90
5607;DHT22;2825;53.116;9.392;2022-09-29T03:35:09;4.80;99.90
5607;DHT22;2825;53.116;9.392;2022-09-29T03:37:35;4.90;99.90
5607;DHT22;2825;53.116;9.392;2022-09-29T03:40:02;4.80;99.90
5607;DHT22;2825;53.116;9.392;2022-09-29T03:42:28;4.80;99.90
5607;DHT22;2825;53.116;9.392;2022-09-29T03:44:54;4.80;99.90
5607;DHT22;2825;53.116;9.392;2022-09-29T03:47:20;4.70;99.90
5607;DHT22;2825;53.116;9.392;2022-09-29T03:49:45;4.80;99.90
5607;DHT22;2825;53.116;9.392;2022-09-29T03:52:11;4.70;99.90
5607;DHT22;2825;53.116;9.392;2022-09-29T03:54:37;4.70;99.90
5607;DHT22;2825;53.116;9.392;2022-09-29T03:57:02;4.70;99.90
5607;DHT22;2825;53.116;9.392;2022-09-29T03:59:28;4.70;99.90
5607;DHT22;2825;53.116;9.392;2022-09-29T04:01:54;4.60;99.90
5607;DHT22;2825;53.116;9.392;2022-09-29T04:04:20;4.60;99.90
5607;DHT22;2825;53.116;9.392;2022-09-29T04:06:46;4.60;99.90
5607;DHT22;2825;53.116;9.392;2022-09-29T04:09:12;4.60;99.90
5607;DHT22;2825;53.116;9.392;2022-09-29T04:11:38;4.60;99.90
5607;DHT22;2825;53.116;9.392;2022-09-29T04:14:03;4.60;99.90
5607;DHT22;2825;53.116;9.392;2022-09-29T04:16:29;4.60;99.90
5607;DHT22;2825;53.116;9.392;2022-09-29T04:18:55;4.60;99.90
5607;DHT22;2825;53.116;9.392;2022-09-29T04:21:20;4.60;99.90
5607;DHT22;2825;53.116;9.392;2022-09-29T04:23:46;4.50;99.90
5607;DHT22;2825;53.116;9.392;2022-09-29T04:26:12;4.60;99.90
5607;DHT22;2825;53.116;9.392;2022-09-29T04:28:38;4.50;99.90
5607;DHT22;2825;53.116;9.392;2022-09-29T04:31:04;4.50;99.90
5607;DHT22;2825;53.116;9.392;2022-09-29T04:33:30;4.50;99.90
5607;DHT22;2825;53.116;9.392;2022-09-29T04:35:57;4.50;99.90
5607;DHT22;2825;53.116;9.392;2022-09-29T04:38:23;4.50;99.90
5607;DHT22;2825;53.116;9.392;2022-09-29T04:40:49;4.60;99.90
5607;DHT22;2825;53.116;9.392;2022-09-29T04:43:14;4.50;99.90
5607;DHT22;2825;53.116;9.392;2022-09-29T04:45:40;4.50;99.90
5607;DHT22;2825;53.116;9.392;2022-09-29T04:48:06;4.50;99.90
5607;DHT22;2825;53.116;9.392;2022-09-29T04:50:32;4.50;99.90
5607;DHT22;2825;53.116;9.392;2022-09-29T04:52:58;4.50;99.90
5607;DHT22;2825;53.116;9.392;2022-09-29T04:55:24;4.50;99.90
5607;DHT22;2825;53.116;9.392;2022-09-29T04:57:50;4.50;99.90
5607;DHT22;2825;53.116;9.392;2022-09-29T05:00:16;4.50;99.90
5607;DHT22;2825;53.116;9.392;2022-09-29T05:02:42;4.40;99.90
5607;DHT22;2825;53.116;9.392;2022-09-29T05:05:09;4.50;99.90
5607;DHT22;2825;53.116;9.392;2022-09-29T05:07:37;4.40;99.90
5607;DHT22;2825;53.116;9.392;2022-09-29T05:10:05;4.50;99.90
5607;DHT22;2825;53.116;9.392;2022-09-29T05:12:31;4.40;99.90
5607;DHT22;2825;53.116;9.392;2022-09-29T05:14:56;4.40;99.90
5607;DHT22;2825;53.116;9.392;2022-09-29T05:17:22;4.40;99.90
5607;DHT22;2825;53.116;9.392;2022-09-29T05:19:48;4.30;99.90
5607;DHT22;2825;53.116;9.392;2022-09-29T05:22:14;4.30;99.90
5607;DHT22;2825;53.116;9.392;2022-09-29T05:24:39;4.30;99.90
5607;DHT22;2825;53.116;9.392;2022-09-29T05:27:05;4.30;99.90
5607;DHT22;2825;53.116;9.392;2022-09-29T05:29:31;4.30;99.90
5607;DHT22;2825;53.116;9.392;2022-09-29T05:31:56;4.30;99.90
5607;DHT22;2825;53.116;9.392;2022-09-29T05:34:22;4.30;99.90
5607;DHT22;2825;53.116;9.392;2022-09-29T05:36:47;4.30;99.90
5607;DHT22;2825;53.116;9.392;2022-09-29T05:39:13;4.30;99.90
5607;DHT22;2825;53.116;9.392;2022-09-29T05:41:39;4.30;99.90
5607;DHT22;2825;53.116;9.392;2022-09-29T05:44:05;4.30;99.90
5607;DHT22;2825;53.116;9.392;2022-09-29T05:46:30;4.30;99.90
5607;DHT22;2825;53.116;9.392;2022-09-29T05:48:56;4.30;99.90
5607;DHT22;2825;53.116;9.392;2022-09-29T05:51:26;4.30;99.90
5607;DHT22;2825;53.116;9.392;2022-09-29T05:53:52;4.40;99.90
5607;DHT22;2825;53.116;9.392;2022-09-29T05:56:21;4.40;99.90
5607;DHT22;2825;53.116;9.392;2022-09-29T05:58:47;4.40;99.90
5607;DHT22;2825;53.116;9.392;2022-09-29T06:01:15;4.40;99.90
5607;DHT22;2825;53.116;9.392;2022-09-29T06:03:41;4.50;99.90
5607;DHT22;2825;53.116;9.392;2022-09-29T06:06:18;4.50;99.90
5607;DHT22;2825;53.116;9.392;2022-09-29T06:08:44;4.50;99.90
5607;DHT22;2825;53.116;9.392;2022-09-29T06:11:13;4.60;99.90
5607;DHT22;2825;53.116;9.392;2022-09-29T06:13:44;4.60;99.90
5607;DHT22;2825;53.116;9.392;2022-09-29T06:16:11;4.70;99.90
5607;DHT22;2825;53.116;9.392;2022-09-29T06:18:38;4.80;99.90
5607;DHT22;2825;53.116;9.392;2022-09-29T06:21:09;4.80;99.90
5607;DHT22;2825;53.116;9.392;2022-09-29T06:23:35;4.90;99.90
5607;DHT22;2825;53.116;9.392;2022-09-29T06:26:04;5.00;99.90
5607;DHT22;2825;53.116;9.392;2022-09-29T06:28:31;5.00;99.90
5607;DHT22;2825;53.116;9.392;2022-09-29T06:31:02;5.10;99.90
5607;DHT22;2825;53.116;9.392;2022-09-29T06:33:30;5.20;99.90
5607;DHT22;2825;53.116;9.392;2022-09-29T06:35:57;5.30;99.90
5607;DHT22;2825;53.116;9.392;2022-09-29T06:38:41;5.30;99.90
5607;DHT22;2825;53.116;9.392;2022-09-29T06:41:07;5.40;99.90
5607;DHT22;2825;53.116;9.392;2022-09-29T06:43:34;5.50;99.90
5607;DHT22;2825;53.116;9.392;2022-09-29T06:45:59;5.60;99.90
5607;DHT22;2825;53.116;9.392;2022-09-29T06:48:25;5.60;99.90
5607;DHT22;2825;53.116;9.392;2022-09-29T06:50:51;5.70;99.90
5607;DHT22;2825;53.116;9.392;2022-09-29T06:53:17;5.70;99.90
5607;DHT22;2825;53.116;9.392;2022-09-29T06:55:43;5.80;99.90
5607;DHT22;2825;53.116;9.392;2022-09-29T06:58:16;5.80;99.90
5607;DHT22;2825;53.116;9.392;2022-09-29T07:00:42;5.90;99.90
5607;DHT22;2825;53.116;9.392;2022-09-29T07:03:07;6.00;99.90
5607;DHT22;2825;53.116;9.392;2022-09-29T07:05:33;6.10;99.90
5607;DHT22;2825;53.116;9.392;2022-09-29T07:07:59;6.10;99.90
5607;DHT22;2825;53.116;9.392;2022-09-29T07:10:25;6.20;99.90
5607;DHT22;2825;53.116;9.392;2022-09-29T07:12:51;6.30;99.90
5607;DHT22;2825;53.116;9.392;2022-09-29T07:15:17;6.30;99.90
5607;DHT22;2825;53.116;9.392;2022-09-29T07:17:42;6.40;99.90
5607;DHT22;2825;53.116;9.392;2022-09-29T07:20:08;6.50;99.90
5607;DHT22;2825;53.116;9.392;2022-09-29T07:22:34;6.50;99.90
5607;DHT22;2825;53.116;9.392;2022-09-29T07:24:59;6.60;99.90
5607;DHT22;2825;53.116;9.392;2022-09-29T07:27:26;6.60;99.90
5607;DHT22;2825;53.116;9.392;2022-09-29T07:29:52;6.60;99.90
5607;DHT22;2825;53.116;9.392;2022-09-29T07:32:19;6.70;99.90
5607;DHT22;2825;53.116;9.392;2022-09-29T07:34:44;6.80;99.90
5607;DHT22;2825;53.116;9.392;2022-09-29T07:37:10;6.90;99.90
5607;DHT22;2825;53.116;9.392;2022-09-29T07:39:36;6.90;99.90
5607;DHT22;2825;53.116;9.392;2022-09-29T07:42:02;7.00;99.90
5607;DHT22;2825;53.116;9.392;2022-09-29T07:44:28;7.00;99.90
5607;DHT22;2825;53.116;9.392;2022-09-29T07:46:56;7.10;99.90
5607;DHT22;2825;53.116;9.392;2022-09-29T07:49:22;7.20;99.90
5607;DHT22;2825;53.116;9.392;2022-09-29T07:51:47;7.20;99.90
5607;DHT22;2825;53.116;9.392;2022-09-29T07:54:13;7.30;99.90
5607;DHT22;2825;53.116;9.392;2022-09-29T07:56:39;7.40;99.90
5607;DHT22;2825;53.116;9.392;2022-09-29T07:59:05;7.40;99.90
5607;DHT22;2825;53.116;9.392;2022-09-29T08:01:30;7.50;99.90
5607;DHT22;2825;53.116;9.392;2022-09-29T08:03:56;7.50;99.90
5607;DHT22;2825;53.116;9.392;2022-09-29T08:06:24;7.70;99.90
5607;DHT22;2825;53.116;9.392;2022-09-29T08:08:50;7.70;99.90
5607;DHT22;2825;53.116;9.392;2022-09-29T08:11:18;7.80;99.90
5607;DHT22;2825;53.116;9.392;2022-09-29T08:13:49;7.90;99.90
5607;DHT22;2825;53.116;9.392;2022-09-29T08:16:15;8.00;99.90
5607;DHT22;2825;53.116;9.392;2022-09-29T08:18:41;8.10;99.90
5607;DHT22;2825;53.116;9.392;2022-09-29T08:21:08;8.20;99.90
5607;DHT22;2825;53.116;9.392;2022-09-29T08:23:39;8.30;99.90
5607;DHT22;2825;53.116;9.392;2022-09-29T08:26:13;8.30;99.90
5607;DHT22;2825;53.116;9.392;2022-09-29T08:28:40;8.30;99.90
5607;DHT22;2825;53.116;9.392;2022-09-29T08:33:36;8.50;99.90
5607;DHT22;2825;53.116;9.392;2022-09-29T08:36:03;8.60;99.90
5607;DHT22;2825;53.116;9.392;2022-09-29T08:38:31;8.70;99.90
5607;DHT22;2825;53.116;9.392;2022-09-29T08:41:02;8.80;99.90
5607;DHT22;2825;53.116;9.392;2022-09-29T08:43:36;8.90;99.90
5607;DHT22;2825;53.116;9.392;2022-09-29T08:46:09;9.00;99.90
5607;DHT22;2825;53.116;9.392;2022-09-29T08:48:42;9.10;99.90
5607;DHT22;2825;53.116;9.392;2022-09-29T08:53:51;9.30;99.90
5607;DHT22;2825;53.116;9.392;2022-09-29T08:56:18;9.40;99.90
5607;DHT22;2825;53.116;9.392;2022-09-29T08:58:45;9.60;99.90
5607;DHT22;2825;53.116;9.392;2022-09-29T09:01:39;9.70;99.90
5607;DHT22;2825;53.116;9.392;2022-09-29T09:07:55;9.90;99.90
5607;DHT22;2825;53.116;9.392;2022-09-29T09:25:47;10.50;99.90
5607;DHT22;2825;53.116;9.392;2022-09-29T09:31:00;10.50;99.90
5607;DHT22;2825;53.116;9.392;2022-09-29T09:33:41;10.60;99.90
5607;DHT22;2825;53.116;9.392;2022-09-29T09:36:15;10.50;99.90
5607;DHT22;2825;53.116;9.392;2022-09-29T09:41:19;10.50;99.90
5607;DHT22;2825;53.116;9.392;2022-09-29T09:43:48;10.50;99.90
5607;DHT22;2825;53.116;9.392;2022-09-29T09:46:23;10.60;99.90
5607;DHT22;2825;53.116;9.392;2022-09-29T09:49:01;10.60;99.90
5607;DHT22;2825;53.116;9.392;2022-09-29T09:54:32;10.70;99.90
5607;DHT22;2825;53.116;9.392;2022-09-29T10:02:46;10.80;99.90
5607;DHT22;2825;53.116;9.392;2022-09-29T10:05:15;10.90;99.90
5607;DHT22;2825;53.116;9.392;2022-09-29T10:07:42;10.90;99.90
5607;DHT22;2825;53.116;9.392;2022-09-29T10:10:23;11.00;99.90
5607;DHT22;2825;53.116;9.392;2022-09-29T10:13:15;11.00;99.90
5607;DHT22;2825;53.116;9.392;2022-09-29T10:15:48;11.00;99.90
5607;DHT22;2825;53.116;9.392;2022-09-29T10:18:16;11.00;99.90
5607;DHT22;2825;53.116;9.392;2022-09-29T10:20:43;11.10;99.90
5607;DHT22;2825;53.116;9.392;2022-09-29T10:23:21;11.20;99.90
5607;DHT22;2825;53.116;9.392;2022-09-29T10:25:56;11.20;99.90
5607;DHT22;2825;53.116;9.392;2022-09-29T10:28:23;11.40;99.90
5607;DHT22;2825;53.116;9.392;2022-09-29T10:30:51;11.50;99.90
5607;DHT22;2825;53.116;9.392;2022-09-29T10:33:21;11.60;99.90
5607;DHT22;2825;53.116;9.392;2022-09-29T10:35:48;11.70;99.90
5607;DHT22;2825;53.116;9.392;2022-09-29T10:38:25;11.90;99.90
5607;DHT22;2825;53.116;9.392;2022-09-29T10:40:56;12.00;99.90
5607;DHT22;2825;53.116;9.392;2022-09-29T10:43:38;12.10;99.90
5607;DHT22;2825;53.116;9.392;2022-09-29T10:46:29;12.30;99.90
5607;DHT22;2825;53.116;9.392;2022-09-29T10:49:16;12.40;99.90
5607;DHT22;2825;53.116;9.392;2022-09-29T10:51:59;12.60;99.90
5607;DHT22;2825;53.116;9.392;2022-09-29T10:54:29;12.70;99.90
5607;DHT22;2825;53.116;9.392;2022-09-29T10:56:57;12.80;99.90
5607;DHT22;2825;53.116;9.392;2022-09-29T10:59:23;12.80;99.90
5607;DHT22;2825;53.116;9.392;2022-09-29T11:01:55;12.90;99.90
5607;DHT22;2825;53.116;9.392;2022-09-29T11:04:27;13.00;99.90
5607;DHT22;2825;53.116;9.392;2022-09-29T11:06:54;13.10;99.90
5607;DHT22;2825;53.116;9.392;2022-09-29T11:17:30;13.50;99.90
5607;DHT22;2825;53.116;9.392;2022-09-29T11:19:59;13.70;99.90
5607;DHT22;2825;53.116;9.392;2022-09-29T11:45:04;14.30;99.90
5607;DHT22;2825;53.116;9.392;2022-09-29T11:47:54;14.30;99.90
5607;DHT22;2825;53.116;9.392;2022-09-29T11:50:40;14.30;99.90
5607;DHT22;2825;53.116;9.392;2022-09-29T12:04:20;14.60;99.90
5607;DHT22;2825;53.116;9.392;2022-09-29T12:11:50;14.60;99.90
5607;DHT22;2825;53.116;9.392;2022-09-29T12:17:19;14.60;99.90
5607;DHT22;2825;53.116;9.392;2022-09-29T12:19:51;14.60;99.90
5607;DHT22;2825;53.116;9.392;2022-09-29T12:22:18;14.60;99.90
5607;DHT22;2825;53.116;9.392;2022-09-29T12:24:47;14.50;99.90
5607;DHT22;2825;53.116;9.392;2022-09-29T12:27:22;14.50;99.90
5607;DHT22;2825;53.116;9.392;2022-09-29T12:29:59;14.60;99.90
5607;DHT22;2825;53.116;9.392;2022-09-29T12:32:59;14.60;99.90
5607;DHT22;2825;53.116;9.392;2022-09-29T12:46:35;14.60;99.90
5607;DHT22;2825;53.116;9.392;2022-09-29T12:49:25;14.60;99.90
5607;DHT22;2825;53.116;9.392;2022-09-29T12:51:56;14.70;99.90
5607;DHT22;2825;53.116;9.392;2022-09-29T12:54:36;14.80;99.90
5607;DHT22;2825;53.116;9.392;2022-09-29T12:57:42;14.90;99.90
5607;DHT22;2825;53.116;9.392;2022-09-29T13:00:05;14.90;99.90
5607;DHT22;2825;53.116;9.392;2022-09-29T13:19:08;14.80;99.90
5607;DHT22;2825;53.116;9.392;2022-09-29T13:21:49;14.80;99.90
5607;DHT22;2825;53.116;9.392;2022-09-29T13:24:56;14.80;99.90
5607;DHT22;2825;53.116;9.392;2022-09-29T13:27:45;14.90;99.90
5607;DHT22;2825;53.116;9.392;2022-09-29T13:30:17;14.90;99.90
5607;DHT22;2825;53.116;9.392;2022-09-29T13:33:06;14.90;99.90
5607;DHT22;2825;53.116;9.392;2022-09-29T13:35:41;15.00;99.90
5607;DHT22;2825;53.116;9.392;2022-09-29T13:38:15;15.00;99.90
5607;DHT22;2825;53.116;9.392;2022-09-29T13:46:38;15.10;99.90
5607;DHT22;2825;53.116;9.392;2022-09-29T13:54:39;15.20;99.90
5607;DHT22;2825;53.116;9.392;2022-09-29T14:08:12;15.20;99.90
5607;DHT22;2825;53.116;9.392;2022-09-29T14:10:46;15.20;99.90
5607;DHT22;2825;53.116;9.392;2022-09-29T14:13:23;15.20;99.90
5607;DHT22;2825;53.116;9.392;2022-09-29T14:21:55;15.20;99.90
5607;DHT22;2825;53.116;9.392;2022-09-29T14:35:36;15.00;99.90
5607;DHT22;2825;53.116;9.392;2022-09-29T14:38:21;14.90;99.90
5607;DHT22;2825;53.116;9.392;2022-09-29T14:43:43;14.90;99.90
5607;DHT22;2825;53.116;9.392;2022-09-29T14:53:05;14.90;99.90
5607;DHT22;2825;53.116;9.392;2022-09-29T14:58:42;14.90;99.90
5607;DHT22;2825;53.116;9.392;2022-09-29T15:03:49;14.80;99.90
5607;DHT22;2825;53.116;9.392;2022-09-29T15:06:20;14.80;99.90
5607;DHT22;2825;53.116;9.392;2022-09-29T15:08:58;14.80;99.90
5607;DHT22;2825;53.116;9.392;2022-09-29T15:11:31;14.80;99.90
5607;DHT22;2825;53.116;9.392;2022-09-29T15:13:59;14.80;99.90
5607;DHT22;2825;53.116;9.392;2022-09-29T15:16:46;14.80;99.90
5607;DHT22;2825;53.116;9.392;2022-09-29T15:25:32;14.90;99.90
5607;DHT22;2825;53.116;9.392;2022-09-29T15:30:42;14.80;99.90
5607;DHT22;2825;53.116;9.392;2022-09-29T15:33:26;14.80;99.90
5607;DHT22;2825;53.116;9.392;2022-09-29T15:36:06;14.70;99.90
5607;DHT22;2825;53.116;9.392;2022-09-29T15:38:37;14.70;99.90
5607;DHT22;2825;53.116;9.392;2022-09-29T15:51:38;14.40;99.90
5607;DHT22;2825;53.116;9.392;2022-09-29T15:54:06;14.40;99.90
5607;DHT22;2825;53.116;9.392;2022-09-29T15:56:39;14.40;99.90
5607;DHT22;2825;53.116;9.392;2022-09-29T15:59:50;14.40;99.90
5607;DHT22;2825;53.116;9.392;2022-09-29T16:04:52;14.40;99.90
5607;DHT22;2825;53.116;9.392;2022-09-29T16:07:30;14.30;99.90
5607;DHT22;2825;53.116;9.392;2022-09-29T16:10:03;14.30;99.90
5607;DHT22;2825;53.116;9.392;2022-09-29T16:12:36;14.30;99.90
5607;DHT22;2825;53.116;9.392;2022-09-29T16:15:03;14.30;99.90
5607;DHT22;2825;53.116;9.392;2022-09-29T16:17:29;14.20;99.90
5607;DHT22;2825;53.116;9.392;2022-09-29T16:19:57;14.20;99.90
5607;DHT22;2825;53.116;9.392;2022-09-29T16:22:25;14.10;99.90
5607;DHT22;2825;53.116;9.392;2022-09-29T16:25:24;14.00;99.90
5607;DHT22;2825;53.116;9.392;2022-09-29T16:32:55;13.90;99.90
5607;DHT22;2825;53.116;9.392;2022-09-29T16:36:02;13.80;99.90
5607;DHT22;2825;53.116;9.392;2022-09-29T16:38:39;13.70;99.90
5607;DHT22;2825;53.116;9.392;2022-09-29T16:41:13;13.70;99.90
5607;DHT22;2825;53.116;9.392;2022-09-29T16:43:40;13.60;99.90
5607;DHT22;2825;53.116;9.392;2022-09-29T16:46:14;13.60;99.90
5607;DHT22;2825;53.116;9.392;2022-09-29T16:48:43;13.50;99.90
5607;DHT22;2825;53.116;9.392;2022-09-29T16:51:20;13.50;99.90
5607;DHT22;2825;53.116;9.392;2022-09-29T16:53:47;13.40;99.90
5607;DHT22;2825;53.116;9.392;2022-09-29T16:56:25;13.30;99.90
5607;DHT22;2825;53.116;9.392;2022-09-29T16:59:10;13.30;99.90
5607;DHT22;2825;53.116;9.392;2022-09-29T17:01:38;13.20;99.90
5607;DHT22;2825;53.116;9.392;2022-09-29T17:04:05;13.10;99.90
5607;DHT22;2825;53.116;9.392;2022-09-29T17:06:31;13.10;99.90
5607;DHT22;2825;53.116;9.392;2022-09-29T17:08:58;13.00;99.90
5607;DHT22;2825;53.116;9.392;2022-09-29T17:11:24;12.90;99.90
5607;DHT22;2825;53.116;9.392;2022-09-29T17:13:50;12.80;99.90
5607;DHT22;2825;53.116;9.392;2022-09-29T17:16:15;12.80;99.90
5607;DHT22;2825;53.116;9.392;2022-09-29T17:18:50;12.70;99.90
5607;DHT22;2825;53.116;9.392;2022-09-29T17:21:17;12.60;99.90
5607;DHT22;2825;53.116;9.392;2022-09-29T17:23:42;12.50;99.90
5607;DHT22;2825;53.116;9.392;2022-09-29T17:26:18;12.50;99.90
5607;DHT22;2825;53.116;9.392;2022-09-29T17:29:04;12.50;99.90
5607;DHT22;2825;53.116;9.392;2022-09-29T17:31:30;12.40;99.90
5607;DHT22;2825;53.116;9.392;2022-09-29T17:33:55;12.40;99.90
5607;DHT22;2825;53.116;9.392;2022-09-29T17:36:21;12.30;99.90
5607;DHT22;2825;53.116;9.392;2022-09-29T17:38:49;12.30;99.90
5607;DHT22;2825;53.116;9.392;2022-09-29T17:41:16;12.30;99.90
5607;DHT22;2825;53.116;9.392;2022-09-29T17:43:43;12.30;99.90
5607;DHT22;2825;53.116;9.392;2022-09-29T17:46:13;12.30;99.90
5607;DHT22;2825;53.116;9.392;2022-09-29T17:48:40;12.30;99.90
5607;DHT22;2825;53.116;9.392;2022-09-29T17:51:12;12.20;99.90
5607;DHT22;2825;53.116;9.392;2022-09-29T17:53:38;12.20;99.90
5607;DHT22;2825;53.116;9.392;2022-09-29T17:56:03;12.10;99.90
5607;DHT22;2825;53.116;9.392;2022-09-29T17:58:29;12.10;99.90
5607;DHT22;2825;53.116;9.392;2022-09-29T18:00:55;12.20;99.90
5607;DHT22;2825;53.116;9.392;2022-09-29T18:03:22;12.10;99.90
5607;DHT22;2825;53.116;9.392;2022-09-29T18:05:53;12.10;99.90
5607;DHT22;2825;53.116;9.392;2022-09-29T18:08:25;12.20;99.90
5607;DHT22;2825;53.116;9.392;2022-09-29T18:10:53;12.20;99.90
5607;DHT22;2825;53.116;9.392;2022-09-29T18:13:20;12.20;99.90
5607;DHT22;2825;53.116;9.392;2022-09-29T18:15:47;12.20;99.90
5607;DHT22;2825;53.116;9.392;2022-09-29T18:18:15;12.30;99.90
5607;DHT22;2825;53.116;9.392;2022-09-29T18:20:42;12.30;99.90
5607;DHT22;2825;53.116;9.392;2022-09-29T18:23:09;12.30;99.90
5607;DHT22;2825;53.116;9.392;2022-09-29T18:25:35;12.30;99.90
5607;DHT22;2825;53.116;9.392;2022-09-29T18:28:01;12.30;99.90
5607;DHT22;2825;53.116;9.392;2022-09-29T18:30:29;12.30;99.90
5607;DHT22;2825;53.116;9.392;2022-09-29T18:32:57;12.30;99.90
5607;DHT22;2825;53.116;9.392;2022-09-29T18:35:34;12.30;99.90
5607;DHT22;2825;53.116;9.392;2022-09-29T18:38:00;12.30;99.90
5607;DHT22;2825;53.116;9.392;2022-09-29T18:40:28;12.20;99.90
5607;DHT22;2825;53.116;9.392;2022-09-29T18:42:54;12.20;99.90
5607;DHT22;2825;53.116;9.392;2022-09-29T18:45:26;12.20;99.90
5607;DHT22;2825;53.116;9.392;2022-09-29T18:47:59;12.20;99.90
5607;DHT22;2825;53.116;9.392;2022-09-29T18:50:32;12.20;99.90
5607;DHT22;2825;53.116;9.392;2022-09-29T18:52:58;12.10;99.90
5607;DHT22;2825;53.116;9.392;2022-09-29T18:55:27;12.20;99.90
5607;DHT22;2825;53.116;9.392;2022-09-29T18:57:54;12.20;99.90
5607;DHT22;2825;53.116;9.392;2022-09-29T19:00:22;12.10;99.90
5607;DHT22;2825;53.116;9.392;2022-09-29T19:02:49;12.20;99.90
5607;DHT22;2825;53.116;9.392;2022-09-29T19:05:20;12.20;99.90
5607;DHT22;2825;53.116;9.392;2022-09-29T19:07:51;12.20;99.90
5607;DHT22;2825;53.116;9.392;2022-09-29T19:10:17;12.20;99.90
5607;DHT22;2825;53.116;9.392;2022-09-29T19:12:43;12.10;99.90
5607;DHT22;2825;53.116;9.392;2022-09-29T19:15:15;12.10;99.90
5607;DHT22;2825;53.116;9.392;2022-09-29T19:17:42;12.10;99.90
5607;DHT22;2825;53.116;9.392;2022-09-29T19:20:10;12.10;99.90
5607;DHT22;2825;53.116;9.392;2022-09-29T19:22:37;12.10;99.90
5607;DHT22;2825;53.116;9.392;2022-09-29T19:25:10;12.10;99.90
5607;DHT22;2825;53.116;9.392;2022-09-29T19:27:38;12.10;99.90
5607;DHT22;2825;53.116;9.392;2022-09-29T19:30:04;12.00;99.90
5607;DHT22;2825;53.116;9.392;2022-09-29T19:32:31;12.00;99.90
5607;DHT22;2825;53.116;9.392;2022-09-29T19:34:57;12.00;99.90
5607;DHT22;2825;53.116;9.392;2022-09-29T19:37:23;12.00;99.90
5607;DHT22;2825;53.116;9.392;2022-09-29T19:39:49;12.00;99.90
5607;DHT22;2825;53.116;9.392;2022-09-29T19:42:15;12.00;99.90
5607;DHT22;2825;53.116;9.392;2022-09-29T19:44:41;11.90;99.90
5607;DHT22;2825;53.116;9.392;2022-09-29T19:47:07;11.90;99.90
5607;DHT22;2825;53.116;9.392;2022-09-29T19:49:33;11.90;99.90
5607;DHT22;2825;53.116;9.392;2022-09-29T19:52:00;11.90;99.90
5607;DHT22;2825;53.116;9.392;2022-09-29T19:54:31;11.90;99.90
5607;DHT22;2825;53.116;9.392;2022-09-29T19:57:10;11.90;99.90
5607;DHT22;2825;53.116;9.392;2022-09-29T19:59:38;11.80;99.90
5607;DHT22;2825;53.116;9.392;2022-09-29T20:02:12;11.80;99.90
5607;DHT22;2825;53.116;9.392;2022-09-29T20:04:39;11.80;99.90
5607;DHT22;2825;53.116;9.392;2022-09-29T20:07:06;11.80;99.90
5607;DHT22;2825;53.116;9.392;2022-09-29T20:09:32;11.80;99.90
5607;DHT22;2825;53.116;9.392;2022-09-29T20:11:58;11.80;99.90
5607;DHT22;2825;53.116;9.392;2022-09-29T20:14:25;11.80;99.90
5607;DHT22;2825;53.116;9.392;2022-09-29T20:16:54;11.80;99.90
5607;DHT22;2825;53.116;9.392;2022-09-29T20:19:20;11.70;99.90
5607;DHT22;2825;53.116;9.392;2022-09-29T20:21:51;11.70;99.90
5607;DHT22;2825;53.116;9.392;2022-09-29T20:24:19;11.70;99.90
5607;DHT22;2825;53.116;9.392;2022-09-29T20:26:46;11.70;99.90
5607;DHT22;2825;53.116;9.392;2022-09-29T20:29:17;11.70;99.90
5607;DHT22;2825;53.116;9.392;2022-09-29T20:31:46;11.70;99.90
5607;DHT22;2825;53.116;9.392;2022-09-29T20:34:12;11.60;99.90